sensor_id;sensor_type;location;lat;lon;timestamp;P1;durP1;ratioP1;P2;durP2;ratioP2
41643;SDS011;44236;48.098;11.582;2022-12-05T05:33:00;5.35;;;3.13;;
41643;SDS011;44236;48.098;11.582;2022-12-05T05:35:25;3.42;;;2.10;;
41643;SDS011;44236;48.098;11.582;2022-12-05T05:37:51;4.35;;;2.53;;
41643;SDS011;44236;48.098;11.582;2022-12-05T05:40:17;4.93;;;2.72;;
41643;SDS011;44236;48.098;11.582;2022-12-05T05:42:43;3.78;;;2.15;;
41643;SDS011;44236;48.098;11.582;2022-12-05T05:45:10;5.22;;;3.08;;
41643;SDS011;44236;48.098;11.582;2022-12-05T05:47:37;4.90;;;2.47;;
41643;SDS011;44236;48.098;11.582;2022-12-05T05:50:03;4.85;;;2.83;;
41643;SDS011;44236;48.098;11.582;2022-12-05T05:52:33;3.70;;;2.25;;
41643;SDS011;44236;48.098;11.582;2022-12-05T05:55:00;4.60;;;2.28;;
41643;SDS011;44236;48.098;11.582;2022-12-05T05:57:26;3.90;;;2.20;;
41643;SDS011;44236;48.098;11.582;2022-12-05T05:59:51;4.68;;;2.60;;
41643;SDS011;44236;48.098;11.582;2022-12-05T06:02:17;5.82;;;3.03;;
41643;SDS011;44236;48.098;11.582;2022-12-05T06:04:43;6.85;;;2.60;;
41643;SDS011;44236;48.098;11.582;2022-12-05T06:07:08;4.32;;;2.55;;
41643;SDS011;44236;48.098;11.582;2022-12-05T06:09:34;4.00;;;2.60;;
41643;SDS011;44236;48.098;11.582;2022-12-05T06:12:00;4.40;;;2.63;;
41643;SDS011;44236;48.098;11.582;2022-12-05T06:14:25;3.78;;;2.40;;
41643;SDS011;44236;48.098;11.582;2022-12-05T06:16:51;4.00;;;2.30;;
41643;SDS011;44236;48.098;11.582;2022-12-05T06:19:16;6.75;;;3.28;;
41643;SDS011;44236;48.098;11.582;2022-12-05T06:21:42;5.07;;;2.70;;
41643;SDS011;44236;48.098;11.582;2022-12-05T06:24:08;4.38;;;2.75;;
41643;SDS011;44236;48.098;11.582;2022-12-05T06:26:33;4.55;;;2.40;;
41643;SDS011;44236;48.098;11.582;2022-12-05T06:28:59;5.35;;;2.75;;
41643;SDS011;44236;48.098;11.582;2022-12-05T06:31:25;5.75;;;2.17;;
41643;SDS011;44236;48.098;11.582;2022-12-05T06:33:52;6.70;;;2.83;;
41643;SDS011;44236;48.098;11.582;2022-12-05T06:36:19;5.28;;;2.63;;
41643;SDS011;44236;48.098;11.582;2022-12-05T06:38:45;7.93;;;2.85;;
41643;SDS011;44236;48.098;11.582;2022-12-05T06:41:15;4.93;;;2.88;;
41643;SDS011;44236;48.098;11.582;2022-12-05T06:43:43;4.40;;;2.45;;
41643;SDS011;44236;48.098;11.582;2022-12-05T06:46:10;8.45;;;2.55;;
41643;SDS011;44236;48.098;11.582;2022-12-05T06:48:36;6.32;;;2.47;;
41643;SDS011;44236;48.098;11.582;2022-12-05T06:51:02;3.88;;;2.30;;
41643;SDS011;44236;48.098;11.582;2022-12-05T06:53:30;5.97;;;3.42;;
41643;SDS011;44236;48.098;11.582;2022-12-05T06:55:57;6.30;;;2.63;;
41643;SDS011;44236;48.098;11.582;2022-12-05T06:58:24;4.53;;;2.45;;
41643;SDS011;44236;48.098;11.582;2022-12-05T07:00:51;4.47;;;2.53;;
41643;SDS011;44236;48.098;11.582;2022-12-05T07:03:36;4.82;;;2.30;;
41643;SDS011;44236;48.098;11.582;2022-12-05T07:06:02;4.70;;;2.95;;
41643;SDS011;44236;48.098;11.582;2022-12-05T07:08:30;7.05;;;3.60;;
41643;SDS011;44236;48.098;11.582;2022-12-05T07:10:56;12.95;;;4.95;;
41643;SDS011;44236;48.098;11.582;2022-12-05T07:13:22;42.05;;;17.40;;
41643;SDS011;44236;48.098;11.582;2022-12-05T07:15:48;42.35;;;17.40;;
41643;SDS011;44236;48.098;11.582;2022-12-05T07:18:15;32.97;;;13.35;;
41643;SDS011;44236;48.098;11.582;2022-12-05T07:20:42;36.72;;;15.43;;
41643;SDS011;44236;48.098;11.582;2022-12-05T07:23:08;42.38;;;17.00;;
41643;SDS011;44236;48.098;11.582;2022-12-05T07:25:37;38.58;;;14.38;;
41643;SDS011;44236;48.098;11.582;2022-12-05T07:28:04;40.92;;;15.07;;
41643;SDS011;44236;48.098;11.582;2022-12-05T07:30:30;23.48;;;9.52;;
41643;SDS011;44236;48.098;11.582;2022-12-05T07:32:56;31.05;;;13.52;;
41643;SDS011;44236;48.098;11.582;2022-12-05T07:35:21;46.05;;;12.98;;
41643;SDS011;44236;48.098;11.582;2022-12-05T07:37:47;30.70;;;12.20;;
41643;SDS011;44236;48.098;11.582;2022-12-05T07:40:12;24.52;;;11.65;;
41643;SDS011;44236;48.098;11.582;2022-12-05T07:42:38;30.08;;;13.85;;
41643;SDS011;44236;48.098;11.582;2022-12-05T07:45:04;32.00;;;12.27;;
41643;SDS011;44236;48.098;11.582;2022-12-05T07:47:31;13.73;;;6.88;;
41643;SDS011;44236;48.098;11.582;2022-12-05T07:49:56;16.60;;;7.80;;
41643;SDS011;44236;48.098;11.582;2022-12-05T07:52:22;12.77;;;6.32;;
41643;SDS011;44236;48.098;11.582;2022-12-05T07:54:48;23.55;;;9.23;;
41643;SDS011;44236;48.098;11.582;2022-12-05T07:57:13;16.58;;;8.15;;
41643;SDS011;44236;48.098;11.582;2022-12-05T07:59:39;17.23;;;6.35;;
41643;SDS011;44236;48.098;11.582;2022-12-05T08:02:04;15.80;;;6.80;;
41643;SDS011;44236;48.098;11.582;2022-12-05T08:04:30;17.60;;;6.72;;
41643;SDS011;44236;48.098;11.582;2022-12-05T08:06:56;17.35;;;8.50;;
41643;SDS011;44236;48.098;11.582;2022-12-05T08:09:21;15.00;;;7.28;;
41643;SDS011;44236;48.098;11.582;2022-12-05T08:11:47;19.58;;;7.60;;
41643;SDS011;44236;48.098;11.582;2022-12-05T08:14:12;15.48;;;7.15;;
41643;SDS011;44236;48.098;11.582;2022-12-05T08:16:38;16.85;;;7.63;;
41643;SDS011;44236;48.098;11.582;2022-12-05T08:19:05;15.30;;;6.22;;
41643;SDS011;44236;48.098;11.582;2022-12-05T08:21:32;12.45;;;5.60;;
41643;SDS011;44236;48.098;11.582;2022-12-05T08:23:58;10.35;;;5.00;;
41643;SDS011;44236;48.098;11.582;2022-12-05T08:26:29;13.93;;;5.65;;
41643;SDS011;44236;48.098;11.582;2022-12-05T08:28:57;17.93;;;7.63;;
41643;SDS011;44236;48.098;11.582;2022-12-05T08:31:28;13.32;;;7.82;;
41643;SDS011;44236;48.098;11.582;2022-12-05T08:33:55;13.02;;;7.78;;
41643;SDS011;44236;48.098;11.582;2022-12-05T08:36:22;10.75;;;7.43;;
41643;SDS011;44236;48.098;11.582;2022-12-05T08:38:48;10.50;;;7.18;;
41643;SDS011;44236;48.098;11.582;2022-12-05T08:41:14;11.48;;;6.28;;
41643;SDS011;44236;48.098;11.582;2022-12-05T08:43:42;8.65;;;5.05;;
41643;SDS011;44236;48.098;11.582;2022-12-05T08:46:08;7.88;;;4.63;;
41643;SDS011;44236;48.098;11.582;2022-12-05T08:48:35;7.47;;;4.05;;
41643;SDS011;44236;48.098;11.582;2022-12-05T08:51:05;7.13;;;4.22;;
41643;SDS011;44236;48.098;11.582;2022-12-05T08:53:33;8.25;;;4.28;;
41643;SDS011;44236;48.098;11.582;2022-12-05T08:56:00;5.80;;;3.28;;
41643;SDS011;44236;48.098;11.582;2022-12-05T08:58:30;7.05;;;3.42;;
41643;SDS011;44236;48.098;11.582;2022-12-05T09:01:03;8.73;;;4.28;;
41643;SDS011;44236;48.098;11.582;2022-12-05T09:03:30;5.80;;;3.22;;
41643;SDS011;44236;48.098;11.582;2022-12-05T09:06:09;4.90;;;2.97;;
41643;SDS011;44236;48.098;11.582;2022-12-05T09:08:45;5.95;;;3.28;;
41643;SDS011;44236;48.098;11.582;2022-12-05T09:11:13;9.13;;;3.38;;
41643;SDS011;44236;48.098;11.582;2022-12-05T09:13:40;7.57;;;3.38;;
41643;SDS011;44236;48.098;11.582;2022-12-05T09:16:14;4.00;;;2.40;;
41643;SDS011;44236;48.098;11.582;2022-12-05T09:18:42;4.18;;;2.30;;
41643;SDS011;44236;48.098;11.582;2022-12-05T09:21:08;3.92;;;2.33;;
41643;SDS011;44236;48.098;11.582;2022-12-05T09:23:36;4.10;;;2.40;;
41643;SDS011;44236;48.098;11.582;2022-12-05T09:26:02;4.95;;;2.00;;
41643;SDS011;44236;48.098;11.582;2022-12-05T09:28:30;4.97;;;2.70;;
41643;SDS011;44236;48.098;11.582;2022-12-05T09:30:57;3.78;;;2.25;;
41643;SDS011;44236;48.098;11.582;2022-12-05T09:33:25;4.85;;;2.63;;
41643;SDS011;44236;48.098;11.582;2022-12-05T09:35:51;8.40;;;2.80;;
41643;SDS011;44236;48.098;11.582;2022-12-05T09:38:17;7.35;;;2.60;;
41643;SDS011;44236;48.098;11.582;2022-12-05T09:40:42;4.78;;;2.38;;
41643;SDS011;44236;48.098;11.582;2022-12-05T09:43:14;4.85;;;2.95;;
41643;SDS011;44236;48.098;11.582;2022-12-05T09:45:59;4.93;;;2.55;;
41643;SDS011;44236;48.098;11.582;2022-12-05T09:48:41;3.92;;;2.03;;
41643;SDS011;44236;48.098;11.582;2022-12-05T09:51:08;3.90;;;2.22;;
41643;SDS011;44236;48.098;11.582;2022-12-05T09:53:40;5.35;;;2.78;;
41643;SDS011;44236;48.098;11.582;2022-12-05T09:58:43;5.32;;;2.90;;
41643;SDS011;44236;48.098;11.582;2022-12-05T10:06:40;4.95;;;2.70;;
41643;SDS011;44236;48.098;11.582;2022-12-05T10:17:30;4.25;;;2.35;;
41643;SDS011;44236;48.098;11.582;2022-12-05T10:20:00;4.20;;;2.30;;
41643;SDS011;44236;48.098;11.582;2022-12-05T10:22:36;4.65;;;2.83;;
41643;SDS011;44236;48.098;11.582;2022-12-05T10:25:12;4.97;;;2.50;;
41643;SDS011;44236;48.098;11.582;2022-12-05T10:27:59;4.55;;;2.72;;
41643;SDS011;44236;48.098;11.582;2022-12-05T10:30:28;3.80;;;2.15;;
41643;SDS011;44236;48.098;11.582;2022-12-05T10:32:57;4.30;;;2.20;;
41643;SDS011;44236;48.098;11.582;2022-12-05T10:35:27;4.28;;;2.40;;
41643;SDS011;44236;48.098;11.582;2022-12-05T10:38:05;4.03;;;2.60;;
41643;SDS011;44236;48.098;11.582;2022-12-05T10:40:37;3.85;;;2.17;;
41643;SDS011;44236;48.098;11.582;2022-12-05T10:43:05;3.58;;;2.17;;
41643;SDS011;44236;48.098;11.582;2022-12-05T10:45:32;4.68;;;2.30;;
41643;SDS011;44236;48.098;11.582;2022-12-05T10:48:03;4.70;;;2.13;;
41643;SDS011;44236;48.098;11.582;2022-12-05T10:50:34;4.22;;;2.45;;
41643;SDS011;44236;48.098;11.582;2022-12-05T10:53:01;5.05;;;2.60;;
41643;SDS011;44236;48.098;11.582;2022-12-05T10:55:29;3.55;;;2.00;;
41643;SDS011;44236;48.098;11.582;2022-12-05T10:58:34;4.82;;;2.17;;
41643;SDS011;44236;48.098;11.582;2022-12-05T11:03:33;6.70;;;1.92;;
41643;SDS011;44236;48.098;11.582;2022-12-05T11:09:12;4.05;;;2.60;;
41643;SDS011;44236;48.098;11.582;2022-12-05T11:11:42;5.13;;;3.13;;
41643;SDS011;44236;48.098;11.582;2022-12-05T11:14:23;8.88;;;2.88;;
41643;SDS011;44236;48.098;11.582;2022-12-05T11:16:54;4.38;;;2.45;;
41643;SDS011;44236;48.098;11.582;2022-12-05T11:19:31;4.53;;;2.63;;
41643;SDS011;44236;48.098;11.582;2022-12-05T11:21:58;7.60;;;2.97;;
41643;SDS011;44236;48.098;11.582;2022-12-05T11:24:29;7.00;;;3.15;;
41643;SDS011;44236;48.098;11.582;2022-12-05T11:26:57;4.97;;;2.22;;
41643;SDS011;44236;48.098;11.582;2022-12-05T11:29:34;5.63;;;2.45;;
41643;SDS011;44236;48.098;11.582;2022-12-05T11:32:05;5.70;;;2.53;;
41643;SDS011;44236;48.098;11.582;2022-12-05T11:40:29;7.88;;;2.20;;
41643;SDS011;44236;48.098;11.582;2022-12-05T11:48:48;7.65;;;2.40;;
41643;SDS011;44236;48.098;11.582;2022-12-05T12:13:01;5.97;;;2.55;;
41643;SDS011;44236;48.098;11.582;2022-12-05T12:15:58;4.82;;;1.95;;
41643;SDS011;44236;48.098;11.582;2022-12-05T12:24:34;4.55;;;2.33;;
41643;SDS011;44236;48.098;11.582;2022-12-05T12:30:02;10.95;;;5.20;;
41643;SDS011;44236;48.098;11.582;2022-12-05T12:49:03;4.15;;;2.47;;
41643;SDS011;44236;48.098;11.582;2022-12-05T12:51:52;3.58;;;1.85;;
41643;SDS011;44236;48.098;11.582;2022-12-05T13:02:36;5.25;;;1.92;;
41643;SDS011;44236;48.098;11.582;2022-12-05T13:08:12;5.90;;;2.08;;
41643;SDS011;44236;48.098;11.582;2022-12-05T13:10:44;4.75;;;2.35;;
41643;SDS011;44236;48.098;11.582;2022-12-05T13:13:13;5.22;;;1.85;;
41643;SDS011;44236;48.098;11.582;2022-12-05T13:15:52;4.03;;;1.70;;
41643;SDS011;44236;48.098;11.582;2022-12-05T13:18:22;3.45;;;1.63;;
41643;SDS011;44236;48.098;11.582;2022-12-05T13:21:07;3.22;;;1.67;;
41643;SDS011;44236;48.098;11.582;2022-12-05T13:23:47;5.53;;;2.10;;
41643;SDS011;44236;48.098;11.582;2022-12-05T13:26:15;3.10;;;1.70;;
41643;SDS011;44236;48.098;11.582;2022-12-05T13:28:55;5.20;;;1.63;;
41643;SDS011;44236;48.098;11.582;2022-12-05T13:36:51;7.03;;;2.47;;
41643;SDS011;44236;48.098;11.582;2022-12-05T13:39:37;3.58;;;1.60;;
41643;SDS011;44236;48.098;11.582;2022-12-05T13:42:26;6.53;;;2.03;;
41643;SDS011;44236;48.098;11.582;2022-12-05T13:47:46;4.63;;;1.90;;
41643;SDS011;44236;48.098;11.582;2022-12-05T13:53:03;3.58;;;1.80;;
41643;SDS011;44236;48.098;11.582;2022-12-05T13:55:35;2.65;;;1.55;;
41643;SDS011;44236;48.098;11.582;2022-12-05T13:58:35;2.92;;;1.30;;
41643;SDS011;44236;48.098;11.582;2022-12-05T14:00:49;13.48;;;7.80;;
41643;SDS011;44236;48.098;11.582;2022-12-05T14:05:56;6.15;;;3.85;;
41643;SDS011;44236;48.098;11.582;2022-12-05T14:16:35;5.07;;;3.35;;
41643;SDS011;44236;48.098;11.582;2022-12-05T14:18:51;4.93;;;3.40;;
41643;SDS011;44236;48.098;11.582;2022-12-05T14:24:37;5.90;;;3.63;;
41643;SDS011;44236;48.098;11.582;2022-12-05T14:30:16;8.40;;;2.95;;
41643;SDS011;44236;48.098;11.582;2022-12-05T14:32:46;6.50;;;2.83;;
41643;SDS011;44236;48.098;11.582;2022-12-05T14:35:30;7.00;;;3.65;;
41643;SDS011;44236;48.098;11.582;2022-12-05T14:38:05;5.13;;;2.88;;
41643;SDS011;44236;48.098;11.582;2022-12-05T14:40:33;4.70;;;2.63;;
41643;SDS011;44236;48.098;11.582;2022-12-05T14:50:48;4.75;;;1.85;;
41643;SDS011;44236;48.098;11.582;2022-12-05T15:01:18;4.90;;;1.92;;
41643;SDS011;44236;48.098;11.582;2022-12-05T15:07:01;3.28;;;1.75;;
41643;SDS011;44236;48.098;11.582;2022-12-05T15:09:48;5.40;;;2.00;;
41643;SDS011;44236;48.098;11.582;2022-12-05T15:12:21;3.60;;;1.70;;
41643;SDS011;44236;48.098;11.582;2022-12-05T15:15:04;4.32;;;1.48;;
41643;SDS011;44236;48.098;11.582;2022-12-05T15:17:38;2.83;;;1.50;;
41643;SDS011;44236;48.098;11.582;2022-12-05T15:20:16;4.35;;;1.60;;
41643;SDS011;44236;48.098;11.582;2022-12-05T15:22:44;2.88;;;1.50;;
41643;SDS011;44236;48.098;11.582;2022-12-05T15:25:51;4.13;;;1.88;;
41643;SDS011;44236;48.098;11.582;2022-12-05T15:28:00;3.67;;;1.85;;
41643;SDS011;44236;48.098;11.582;2022-12-05T15:30:29;2.15;;;1.40;;
41643;SDS011;44236;48.098;11.582;2022-12-05T15:32:56;3.20;;;1.70;;
41643;SDS011;44236;48.098;11.582;2022-12-05T15:35:23;6.47;;;2.20;;
41643;SDS011;44236;48.098;11.582;2022-12-05T15:40:23;2.95;;;1.40;;
41643;SDS011;44236;48.098;11.582;2022-12-05T15:47:48;4.72;;;1.70;;
41643;SDS011;44236;48.098;11.582;2022-12-05T15:50:37;6.10;;;1.60;;
41643;SDS011;44236;48.098;11.582;2022-12-05T15:53:16;2.70;;;1.63;;
41643;SDS011;44236;48.098;11.582;2022-12-05T15:58:53;2.35;;;1.30;;
41643;SDS011;44236;48.098;11.582;2022-12-05T16:01:26;3.10;;;1.33;;
41643;SDS011;44236;48.098;11.582;2022-12-05T16:04:06;2.47;;;1.45;;
41643;SDS011;44236;48.098;11.582;2022-12-05T16:06:52;2.53;;;1.30;;
41643;SDS011;44236;48.098;11.582;2022-12-05T16:09:20;7.05;;;1.80;;
41643;SDS011;44236;48.098;11.582;2022-12-05T16:12:24;4.03;;;1.38;;
41643;SDS011;44236;48.098;11.582;2022-12-05T16:14:42;3.10;;;1.40;;
41643;SDS011;44236;48.098;11.582;2022-12-05T16:17:13;4.13;;;1.45;;
41643;SDS011;44236;48.098;11.582;2022-12-05T16:19:39;4.03;;;1.50;;
41643;SDS011;44236;48.098;11.582;2022-12-05T16:22:24;3.08;;;1.50;;
41643;SDS011;44236;48.098;11.582;2022-12-05T16:24:53;4.22;;;1.30;;
41643;SDS011;44236;48.098;11.582;2022-12-05T16:27:24;3.28;;;1.45;;
41643;SDS011;44236;48.098;11.582;2022-12-05T16:30:06;2.13;;;1.23;;
41643;SDS011;44236;48.098;11.582;2022-12-05T16:32:41;5.72;;;1.23;;
41643;SDS011;44236;48.098;11.582;2022-12-05T16:38:31;2.90;;;1.42;;
41643;SDS011;44236;48.098;11.582;2022-12-05T16:40:52;2.35;;;1.20;;
41643;SDS011;44236;48.098;11.582;2022-12-05T16:43:22;3.17;;;1.83;;
41643;SDS011;44236;48.098;11.582;2022-12-05T16:45:53;2.03;;;1.10;;
41643;SDS011;44236;48.098;11.582;2022-12-05T16:48:23;2.42;;;1.08;;
41643;SDS011;44236;48.098;11.582;2022-12-05T16:53:38;2.15;;;0.90;;
41643;SDS011;44236;48.098;11.582;2022-12-05T16:56:17;2.55;;;1.30;;
41643;SDS011;44236;48.098;11.582;2022-12-05T17:01:24;3.85;;;1.75;;
41643;SDS011;44236;48.098;11.582;2022-12-05T17:03:51;3.80;;;1.40;;
41643;SDS011;44236;48.098;11.582;2022-12-05T17:06:18;5.50;;;2.03;;
41643;SDS011;44236;48.098;11.582;2022-12-05T17:08:45;4.03;;;1.48;;
41643;SDS011;44236;48.098;11.582;2022-12-05T17:11:13;6.05;;;1.48;;
41643;SDS011;44236;48.098;11.582;2022-12-05T17:13:45;7.75;;;1.80;;
41643;SDS011;44236;48.098;11.582;2022-12-05T17:16:13;5.78;;;1.75;;
41643;SDS011;44236;48.098;11.582;2022-12-05T17:18:40;11.63;;;2.63;;
41643;SDS011;44236;48.098;11.582;2022-12-05T17:21:09;12.85;;;4.05;;
41643;SDS011;44236;48.098;11.582;2022-12-05T17:23:39;9.50;;;3.45;;
41643;SDS011;44236;48.098;11.582;2022-12-05T17:26:07;11.82;;;5.18;;
41643;SDS011;44236;48.098;11.582;2022-12-05T17:28:36;11.98;;;4.43;;
41643;SDS011;44236;48.098;11.582;2022-12-05T17:31:02;14.65;;;4.32;;
41643;SDS011;44236;48.098;11.582;2022-12-05T17:33:28;15.40;;;6.20;;
41643;SDS011;44236;48.098;11.582;2022-12-05T17:35:54;25.27;;;10.02;;
41643;SDS011;44236;48.098;11.582;2022-12-05T17:38:20;31.02;;;12.98;;
41643;SDS011;44236;48.098;11.582;2022-12-05T17:40:46;27.05;;;10.98;;
41643;SDS011;44236;48.098;11.582;2022-12-05T17:43:12;39.38;;;14.52;;
41643;SDS011;44236;48.098;11.582;2022-12-05T17:45:40;38.08;;;13.65;;
41643;SDS011;44236;48.098;11.582;2022-12-05T17:48:16;42.20;;;15.60;;
41643;SDS011;44236;48.098;11.582;2022-12-05T17:50:42;33.15;;;14.95;;
41643;SDS011;44236;48.098;11.582;2022-12-05T17:53:14;38.65;;;17.95;;
41643;SDS011;44236;48.098;11.582;2022-12-05T17:55:42;35.37;;;13.90;;
41643;SDS011;44236;48.098;11.582;2022-12-05T17:58:08;37.28;;;15.30;;
41643;SDS011;44236;48.098;11.582;2022-12-05T18:00:35;39.47;;;16.35;;
41643;SDS011;44236;48.098;11.582;2022-12-05T18:03:01;35.83;;;14.57;;
41643;SDS011;44236;48.098;11.582;2022-12-05T18:05:27;39.42;;;16.40;;
41643;SDS011;44236;48.098;11.582;2022-12-05T18:07:53;32.40;;;14.65;;
41643;SDS011;44236;48.098;11.582;2022-12-05T18:10:19;32.80;;;11.98;;
41643;SDS011;44236;48.098;11.582;2022-12-05T18:12:47;23.48;;;9.48;;
41643;SDS011;44236;48.098;11.582;2022-12-05T18:15:13;33.58;;;10.00;;
41643;SDS011;44236;48.098;11.582;2022-12-05T18:17:40;25.25;;;8.80;;
41643;SDS011;44236;48.098;11.582;2022-12-05T18:20:07;29.75;;;9.98;;
41643;SDS011;44236;48.098;11.582;2022-12-05T18:22:35;15.05;;;8.32;;
41643;SDS011;44236;48.098;11.582;2022-12-05T18:25:00;19.75;;;8.50;;
41643;SDS011;44236;48.098;11.582;2022-12-05T18:27:27;17.55;;;6.88;;
41643;SDS011;44236;48.098;11.582;2022-12-05T18:29:54;16.15;;;6.82;;
41643;SDS011;44236;48.098;11.582;2022-12-05T18:32:19;14.85;;;7.10;;
41643;SDS011;44236;48.098;11.582;2022-12-05T18:34:45;16.70;;;6.82;;
41643;SDS011;44236;48.098;11.582;2022-12-05T18:37:11;20.20;;;8.00;;
41643;SDS011;44236;48.098;11.582;2022-12-05T18:39:37;18.15;;;5.90;;
41643;SDS011;44236;48.098;11.582;2022-12-05T18:42:04;12.82;;;6.28;;
41643;SDS011;44236;48.098;11.582;2022-12-05T18:44:30;18.23;;;6.55;;
41643;SDS011;44236;48.098;11.582;2022-12-05T18:46:58;17.35;;;6.00;;
41643;SDS011;44236;48.098;11.582;2022-12-05T18:49:24;17.00;;;6.63;;
41643;SDS011;44236;48.098;11.582;2022-12-05T18:51:49;16.33;;;6.03;;
41643;SDS011;44236;48.098;11.582;2022-12-05T18:54:15;17.25;;;4.78;;
41643;SDS011;44236;48.098;11.582;2022-12-05T18:56:41;15.65;;;4.85;;
41643;SDS011;44236;48.098;11.582;2022-12-05T18:59:13;12.00;;;4.55;;
41643;SDS011;44236;48.098;11.582;2022-12-05T19:01:40;13.38;;;4.78;;
41643;SDS011;44236;48.098;11.582;2022-12-05T19:04:06;17.77;;;5.38;;
41643;SDS011;44236;48.098;11.582;2022-12-05T19:06:36;17.55;;;3.78;;
41643;SDS011;44236;48.098;11.582;2022-12-05T19:09:05;11.75;;;4.65;;
41643;SDS011;44236;48.098;11.582;2022-12-05T19:11:32;10.23;;;4.10;;
41643;SDS011;44236;48.098;11.582;2022-12-05T19:14:00;11.40;;;3.72;;
41643;SDS011;44236;48.098;11.582;2022-12-05T19:16:28;12.10;;;4.68;;
41643;SDS011;44236;48.098;11.582;2022-12-05T19:18:56;9.18;;;3.63;;
41643;SDS011;44236;48.098;11.582;2022-12-05T19:21:24;15.48;;;5.57;;
41643;SDS011;44236;48.098;11.582;2022-12-05T19:23:51;7.05;;;3.47;;
41643;SDS011;44236;48.098;11.582;2022-12-05T19:26:17;10.52;;;4.13;;
41643;SDS011;44236;48.098;11.582;2022-12-05T19:28:44;8.10;;;3.70;;
41643;SDS011;44236;48.098;11.582;2022-12-05T19:31:10;9.95;;;4.15;;
41643;SDS011;44236;48.098;11.582;2022-12-05T19:33:38;11.40;;;3.47;;
41643;SDS011;44236;48.098;11.582;2022-12-05T19:36:07;7.35;;;3.33;;
41643;SDS011;44236;48.098;11.582;2022-12-05T19:38:36;8.50;;;3.78;;
41643;SDS011;44236;48.098;11.582;2022-12-05T19:41:03;7.97;;;3.53;;
41643;SDS011;44236;48.098;11.582;2022-12-05T19:43:31;8.02;;;2.92;;
41643;SDS011;44236;48.098;11.582;2022-12-05T19:45:57;6.72;;;3.05;;
41643;SDS011;44236;48.098;11.582;2022-12-05T19:48:30;10.40;;;3.83;;
41643;SDS011;44236;48.098;11.582;2022-12-05T19:50:57;5.85;;;2.45;;
41643;SDS011;44236;48.098;11.582;2022-12-05T19:53:24;6.20;;;2.80;;
41643;SDS011;44236;48.098;11.582;2022-12-05T19:55:57;7.47;;;2.85;;
41643;SDS011;44236;48.098;11.582;2022-12-05T19:58:25;8.25;;;2.72;;
41643;SDS011;44236;48.098;11.582;2022-12-05T20:00:50;10.00;;;3.45;;
41643;SDS011;44236;48.098;11.582;2022-12-05T20:03:16;9.70;;;3.28;;
41643;SDS011;44236;48.098;11.582;2022-12-05T20:05:42;14.90;;;4.03;;
41643;SDS011;44236;48.098;11.582;2022-12-05T20:08:07;8.05;;;3.40;;
41643;SDS011;44236;48.098;11.582;2022-12-05T20:10:33;9.63;;;3.25;;
41643;SDS011;44236;48.098;11.582;2022-12-05T20:13:00;6.78;;;3.00;;
41643;SDS011;44236;48.098;11.582;2022-12-05T20:15:26;9.80;;;2.85;;
41643;SDS011;44236;48.098;11.582;2022-12-05T20:17:53;6.50;;;2.72;;
41643;SDS011;44236;48.098;11.582;2022-12-05T20:20:19;6.47;;;2.42;;
41643;SDS011;44236;48.098;11.582;2022-12-05T20:22:44;6.55;;;2.72;;
41643;SDS011;44236;48.098;11.582;2022-12-05T20:25:10;8.27;;;2.67;;
41643;SDS011;44236;48.098;11.582;2022-12-05T20:27:35;6.00;;;2.35;;
41643;SDS011;44236;48.098;11.582;2022-12-05T20:30:01;5.68;;;2.10;;
41643;SDS011;44236;48.098;11.582;2022-12-05T20:32:27;8.20;;;1.90;;
41643;SDS011;44236;48.098;11.582;2022-12-05T20:34:53;6.07;;;2.80;;
41643;SDS011;44236;48.098;11.582;2022-12-05T20:37:18;6.68;;;2.17;;
41643;SDS011;44236;48.098;11.582;2022-12-05T20:39:44;6.03;;;2.40;;
41643;SDS011;44236;48.098;11.582;2022-12-05T20:42:10;5.63;;;2.88;;
41643;SDS011;44236;48.098;11.582;2022-12-05T20:44:35;10.52;;;2.63;;
41643;SDS011;44236;48.098;11.582;2022-12-05T20:47:01;4.68;;;2.40;;
41643;SDS011;44236;48.098;11.582;2022-12-05T20:49:27;3.55;;;1.98;;
41643;SDS011;44236;48.098;11.582;2022-12-05T20:51:52;48.10;;;3.75;;
41643;SDS011;44236;48.098;11.582;2022-12-05T20:54:18;17.65;;;3.58;;
41643;SDS011;44236;48.098;11.582;2022-12-05T20:56:45;12.40;;;3.47;;
41643;SDS011;44236;48.098;11.582;2022-12-05T21:02:36;15.38;;;3.03;;
41643;SDS011;44236;48.098;11.582;2022-12-05T21:05:01;12.90;;;2.97;;
41643;SDS011;44236;48.098;11.582;2022-12-05T21:07:30;8.45;;;2.85;;
41643;SDS011;44236;48.098;11.582;2022-12-05T21:09:56;12.95;;;2.22;;
41643;SDS011;44236;48.098;11.582;2022-12-05T21:12:22;8.35;;;2.53;;
41643;SDS011;44236;48.098;11.582;2022-12-05T21:14:50;8.68;;;2.50;;
41643;SDS011;44236;48.098;11.582;2022-12-05T21:17:16;6.47;;;2.30;;
41643;SDS011;44236;48.098;11.582;2022-12-05T21:19:42;11.63;;;2.50;;
41643;SDS011;44236;48.098;11.582;2022-12-05T21:22:09;5.78;;;2.22;;
41643;SDS011;44236;48.098;11.582;2022-12-05T21:24:35;12.45;;;1.95;;
41643;SDS011;44236;48.098;11.582;2022-12-05T21:27:00;7.65;;;2.00;;
41643;SDS011;44236;48.098;11.582;2022-12-05T21:29:26;5.68;;;2.00;;
41643;SDS011;44236;48.098;11.582;2022-12-05T21:31:51;5.78;;;1.60;;
41643;SDS011;44236;48.098;11.582;2022-12-05T21:34:18;6.68;;;1.90;;
41643;SDS011;44236;48.098;11.582;2022-12-05T21:36:46;5.15;;;1.90;;
41643;SDS011;44236;48.098;11.582;2022-12-05T21:39:12;3.50;;;1.38;;
41643;SDS011;44236;48.098;11.582;2022-12-05T21:41:38;6.80;;;1.58;;
41643;SDS011;44236;48.098;11.582;2022-12-05T21:44:04;9.63;;;2.28;;
41643;SDS011;44236;48.098;11.582;2022-12-05T21:46:29;4.45;;;1.98;;
41643;SDS011;44236;48.098;11.582;2022-12-05T21:48:55;9.02;;;1.90;;
41643;SDS011;44236;48.098;11.582;2022-12-05T21:51:21;4.47;;;1.80;;
41643;SDS011;44236;48.098;11.582;2022-12-05T21:53:47;4.18;;;1.90;;
41643;SDS011;44236;48.098;11.582;2022-12-05T21:56:14;4.40;;;1.45;;
41643;SDS011;44236;48.098;11.582;2022-12-05T21:58:43;5.45;;;1.63;;
41643;SDS011;44236;48.098;11.582;2022-12-05T22:01:10;7.05;;;2.22;;
41643;SDS011;44236;48.098;11.582;2022-12-05T22:03:41;3.08;;;1.23;;
41643;SDS011;44236;48.098;11.582;2022-12-05T22:06:08;2.85;;;1.38;;
41643;SDS011;44236;48.098;11.582;2022-12-05T22:08:36;3.47;;;1.70;;
41643;SDS011;44236;48.098;11.582;2022-12-05T22:11:12;3.55;;;1.60;;
41643;SDS011;44236;48.098;11.582;2022-12-05T22:13:43;2.50;;;1.08;;
41643;SDS011;44236;48.098;11.582;2022-12-05T22:16:09;3.45;;;1.50;;
41643;SDS011;44236;48.098;11.582;2022-12-05T22:18:36;5.22;;;1.70;;
41643;SDS011;44236;48.098;11.582;2022-12-05T22:21:06;5.78;;;1.40;;
41643;SDS011;44236;48.098;11.582;2022-12-05T22:23:34;4.20;;;1.40;;
41643;SDS011;44236;48.098;11.582;2022-12-05T22:26:04;4.05;;;1.45;;
41643;SDS011;44236;48.098;11.582;2022-12-05T22:28:32;4.22;;;1.50;;
